TimeEST,TemperatureF,Dew PointF,Humidity,Sea Level PressureIn,VisibilityMPH,Wind Direction,Wind SpeedMPH,Gust SpeedMPH,PrecipitationIn,Events,Conditions,WindDirDegrees,DateUTC
12:53 AM,27.0,10.9,51,30.38,10.0,NW,9.2,-,N/A,,Scattered Clouds,310,2013-01-18 05:53:00
1:53 AM,27.0,12.9,56,30.41,10.0,West,10.4,-,N/A,,Overcast,280,2013-01-18 06:53:00
2:53 AM,27.0,14.0,58,30.43,10.0,WNW,6.9,-,N/A,,Mostly Cloudy,300,2013-01-18 07:53:00
3:53 AM,26.1,12.9,58,30.42,10.0,WNW,5.8,-,N/A,,Mostly Cloudy,300,2013-01-18 08:53:00
4:53 AM,25.0,15.1,66,30.42,10.0,West,6.9,-,N/A,,Mostly Cloudy,260,2013-01-18 09:53:00
5:53 AM,26.1,16.0,66,30.42,10.0,West,5.8,-,N/A,,Mostly Cloudy,270,2013-01-18 10:53:00
6:53 AM,27.0,17.1,66,30.42,10.0,West,6.9,-,N/A,,Overcast,260,2013-01-18 11:53:00
7:53 AM,25.0,17.1,72,30.40,10.0,South,6.9,-,N/A,,Overcast,170,2013-01-18 12:53:00
8:53 AM,26.1,18.0,71,30.39,10.0,South,9.2,-,N/A,,Overcast,180,2013-01-18 13:53:00
9:53 AM,27.0,16.0,63,30.39,10.0,South,9.2,-,N/A,,Overcast,190,2013-01-18 14:53:00
11:53 AM,30.0,18.0,61,30.32,10.0,South,13.8,21.9,N/A,,Overcast,180,2013-01-18 16:53:00
12:53 PM,32.0,19.0,59,30.25,10.0,South,13.8,25.3,N/A,,Overcast,190,2013-01-18 17:53:00
1:53 PM,34.0,21.0,59,30.19,10.0,SSW,17.3,26.5,N/A,,Partly Cloudy,200,2013-01-18 18:53:00
2:53 PM,37.0,23.0,57,30.14,10.0,South,21.9,33.4,N/A,,Clear,180,2013-01-18 19:53:00
3:53 PM,39.0,24.1,55,30.09,10.0,South,17.3,29.9,N/A,,Clear,180,2013-01-18 20:53:00
4:53 PM,39.0,24.1,55,30.05,10.0,South,19.6,29.9,N/A,,Clear,180,2013-01-18 21:53:00
5:53 PM,37.9,23.0,55,30.01,10.0,South,18.4,29.9,N/A,,Clear,190,2013-01-18 22:53:00
6:53 PM,37.0,21.9,54,30.01,10.0,South,19.6,32.2,N/A,,Clear,190,2013-01-18 23:53:00
7:53 PM,37.9,21.9,53,30.01,10.0,SSW,15.0,26.5,N/A,,Clear,200,2013-01-19 00:53:00
8:53 PM,39.0,23.0,53,30.00,10.0,SSW,12.7,24.2,N/A,,Clear,200,2013-01-19 01:53:00
9:53 PM,39.9,24.1,53,29.99,10.0,SSW,15.0,25.3,N/A,,Clear,210,2013-01-19 02:53:00
10:53 PM,41.0,25.0,53,29.97,10.0,SSW,18.4,28.8,N/A,,Clear,210,2013-01-19 03:53:00
11:53 PM,42.1,25.0,51,29.95,10.0,SW,21.9,31.1,N/A,,Clear,220,2013-01-19 04:53:00